Jordans Store, Texas
Current Conditions -  °F | °C
As of 10:55 AM on Monday 22 Dec 2014 (Local Time) from KOCH Reporting Station
Overcast Overcast  
Wind Chill: 63°   Ceiling: 1300
Heat Index: 63°   Visibility: 10mi
Dew Point: 57°   Wind: 13mph
Humidity: 82%   Direction: 190°S
Pressure: 29.68"   Gusts: 20mph
Location:  31.7022°N, 93.9592°W
Report Text: KOCH 221655Z AUTO 19011G17KT 10SM BKN013 OVC020 17/14 A2968 RMK AO1
Loading
Personal Weather Stations






























Interactive Weather Map New forecast layout! Learn more

10-Day Weather Forecast

Advertisements
Track Severe Weather on mobile